sensor_id;sensor_type;location;lat;lon;timestamp;temperature;humidity
39023;DHT22;25908;51.984;5.928;2022-11-12T00:01:16;7.80;99.90
39023;DHT22;25908;51.984;5.928;2022-11-12T00:03:42;7.80;99.90
39023;DHT22;25908;51.984;5.928;2022-11-12T00:06:07;7.80;99.90
39023;DHT22;25908;51.984;5.928;2022-11-12T00:08:33;7.80;99.90
39023;DHT22;25908;51.984;5.928;2022-11-12T00:10:58;7.80;99.90
39023;DHT22;25908;51.984;5.928;2022-11-12T00:13:24;7.70;99.90
39023;DHT22;25908;51.984;5.928;2022-11-12T00:15:49;7.70;99.90
39023;DHT22;25908;51.984;5.928;2022-11-12T00:18:15;7.70;99.90
39023;DHT22;25908;51.984;5.928;2022-11-12T00:20:40;7.60;99.90
39023;DHT22;25908;51.984;5.928;2022-11-12T00:23:06;7.60;99.90
39023;DHT22;25908;51.984;5.928;2022-11-12T00:25:32;7.60;99.90
39023;DHT22;25908;51.984;5.928;2022-11-12T00:28:05;7.50;99.90
39023;DHT22;25908;51.984;5.928;2022-11-12T00:30:31;7.50;99.90
39023;DHT22;25908;51.984;5.928;2022-11-12T00:33:01;7.50;99.90
39023;DHT22;25908;51.984;5.928;2022-11-12T00:35:27;7.50;99.90
39023;DHT22;25908;51.984;5.928;2022-11-12T00:37:54;7.40;99.90
39023;DHT22;25908;51.984;5.928;2022-11-12T00:40:19;7.40;99.90
39023;DHT22;25908;51.984;5.928;2022-11-12T00:42:45;7.40;99.90
39023;DHT22;25908;51.984;5.928;2022-11-12T00:45:11;7.40;99.90
39023;DHT22;25908;51.984;5.928;2022-11-12T00:47:36;7.40;99.90
39023;DHT22;25908;51.984;5.928;2022-11-12T00:50:02;7.40;99.90
39023;DHT22;25908;51.984;5.928;2022-11-12T00:52:27;7.40;99.90
39023;DHT22;25908;51.984;5.928;2022-11-12T00:54:53;7.40;99.90
39023;DHT22;25908;51.984;5.928;2022-11-12T00:57:18;7.30;99.90
39023;DHT22;25908;51.984;5.928;2022-11-12T00:59:44;7.30;99.90
39023;DHT22;25908;51.984;5.928;2022-11-12T01:02:09;7.30;99.90
39023;DHT22;25908;51.984;5.928;2022-11-12T01:04:35;7.30;99.90
39023;DHT22;25908;51.984;5.928;2022-11-12T01:07:01;7.30;99.90
39023;DHT22;25908;51.984;5.928;2022-11-12T01:09:26;7.30;99.90
39023;DHT22;25908;51.984;5.928;2022-11-12T01:11:52;7.30;99.90
39023;DHT22;25908;51.984;5.928;2022-11-12T01:14:17;7.30;99.90
39023;DHT22;25908;51.984;5.928;2022-11-12T01:16:43;7.20;99.90
39023;DHT22;25908;51.984;5.928;2022-11-12T01:19:10;7.20;99.90
39023;DHT22;25908;51.984;5.928;2022-11-12T01:21:40;7.20;99.90
39023;DHT22;25908;51.984;5.928;2022-11-12T01:24:06;7.20;99.90
39023;DHT22;25908;51.984;5.928;2022-11-12T01:26:32;7.20;99.90
39023;DHT22;25908;51.984;5.928;2022-11-12T01:28:58;7.20;99.90
39023;DHT22;25908;51.984;5.928;2022-11-12T01:31:26;7.10;99.90
39023;DHT22;25908;51.984;5.928;2022-11-12T01:33:57;7.10;99.90
39023;DHT22;25908;51.984;5.928;2022-11-12T01:36:24;7.10;99.90
39023;DHT22;25908;51.984;5.928;2022-11-12T01:38:50;7.10;99.90
39023;DHT22;25908;51.984;5.928;2022-11-12T01:41:29;7.10;99.90
39023;DHT22;25908;51.984;5.928;2022-11-12T01:44:20;7.10;99.90
39023;DHT22;25908;51.984;5.928;2022-11-12T01:49:46;7.10;99.90
39023;DHT22;25908;51.984;5.928;2022-11-12T01:52:39;7.10;99.90
39023;DHT22;25908;51.984;5.928;2022-11-12T01:55:11;7.10;99.90
39023;DHT22;25908;51.984;5.928;2022-11-12T01:57:46;7.00;99.90
39023;DHT22;25908;51.984;5.928;2022-11-12T02:00:14;7.00;99.90
39023;DHT22;25908;51.984;5.928;2022-11-12T02:02:43;7.00;99.90
39023;DHT22;25908;51.984;5.928;2022-11-12T02:05:11;7.00;99.90
39023;DHT22;25908;51.984;5.928;2022-11-12T02:07:40;7.00;99.90
39023;DHT22;25908;51.984;5.928;2022-11-12T02:10:07;6.90;99.90
39023;DHT22;25908;51.984;5.928;2022-11-12T02:12:33;6.90;99.90
39023;DHT22;25908;51.984;5.928;2022-11-12T02:15:17;6.90;99.90
39023;DHT22;25908;51.984;5.928;2022-11-12T02:17:43;6.90;99.90
39023;DHT22;25908;51.984;5.928;2022-11-12T02:20:12;6.90;99.90
39023;DHT22;25908;51.984;5.928;2022-11-12T02:22:38;6.90;99.90
39023;DHT22;25908;51.984;5.928;2022-11-12T02:25:04;6.90;99.90
39023;DHT22;25908;51.984;5.928;2022-11-12T02:27:30;6.90;99.90
39023;DHT22;25908;51.984;5.928;2022-11-12T02:29:55;6.80;99.90
39023;DHT22;25908;51.984;5.928;2022-11-12T02:32:21;6.80;99.90
39023;DHT22;25908;51.984;5.928;2022-11-12T02:34:47;6.80;99.90
39023;DHT22;25908;51.984;5.928;2022-11-12T02:37:12;6.80;99.90
39023;DHT22;25908;51.984;5.928;2022-11-12T02:39:38;6.80;99.90
39023;DHT22;25908;51.984;5.928;2022-11-12T02:42:03;6.80;99.90
39023;DHT22;25908;51.984;5.928;2022-11-12T02:44:30;6.80;99.90
39023;DHT22;25908;51.984;5.928;2022-11-12T02:46:55;6.80;99.90
39023;DHT22;25908;51.984;5.928;2022-11-12T02:49:21;6.70;99.90
39023;DHT22;25908;51.984;5.928;2022-11-12T02:51:47;6.70;99.90
39023;DHT22;25908;51.984;5.928;2022-11-12T02:54:12;6.70;99.90
39023;DHT22;25908;51.984;5.928;2022-11-12T02:56:38;6.70;99.90
39023;DHT22;25908;51.984;5.928;2022-11-12T02:59:04;6.70;99.90
39023;DHT22;25908;51.984;5.928;2022-11-12T03:01:29;6.60;99.90
39023;DHT22;25908;51.984;5.928;2022-11-12T03:03:55;6.60;99.90
39023;DHT22;25908;51.984;5.928;2022-11-12T03:06:20;6.70;99.90
39023;DHT22;25908;51.984;5.928;2022-11-12T03:08:46;6.60;99.90
39023;DHT22;25908;51.984;5.928;2022-11-12T03:11:14;6.70;99.90
39023;DHT22;25908;51.984;5.928;2022-11-12T03:13:40;6.60;99.90
39023;DHT22;25908;51.984;5.928;2022-11-12T03:16:06;6.60;99.90
39023;DHT22;25908;51.984;5.928;2022-11-12T03:18:31;6.50;99.90
39023;DHT22;25908;51.984;5.928;2022-11-12T03:20:57;6.50;99.90
39023;DHT22;25908;51.984;5.928;2022-11-12T03:23:24;6.50;99.90
39023;DHT22;25908;51.984;5.928;2022-11-12T03:25:50;6.50;99.90
39023;DHT22;25908;51.984;5.928;2022-11-12T03:28:15;6.50;99.90
39023;DHT22;25908;51.984;5.928;2022-11-12T03:30:42;6.50;99.90
39023;DHT22;25908;51.984;5.928;2022-11-12T03:33:11;6.50;99.90
39023;DHT22;25908;51.984;5.928;2022-11-12T03:35:37;6.50;99.90
39023;DHT22;25908;51.984;5.928;2022-11-12T03:38:04;6.50;99.90
39023;DHT22;25908;51.984;5.928;2022-11-12T03:40:30;6.50;99.90
39023;DHT22;25908;51.984;5.928;2022-11-12T03:42:56;6.50;99.90
39023;DHT22;25908;51.984;5.928;2022-11-12T03:45:24;6.40;99.90
39023;DHT22;25908;51.984;5.928;2022-11-12T03:47:53;6.40;99.90
39023;DHT22;25908;51.984;5.928;2022-11-12T03:50:21;6.40;99.90
39023;DHT22;25908;51.984;5.928;2022-11-12T03:52:49;6.40;99.90
39023;DHT22;25908;51.984;5.928;2022-11-12T03:55:17;6.40;99.90
39023;DHT22;25908;51.984;5.928;2022-11-12T03:57:43;6.40;99.90
39023;DHT22;25908;51.984;5.928;2022-11-12T04:00:11;6.30;99.90
39023;DHT22;25908;51.984;5.928;2022-11-12T04:02:37;6.30;99.90
39023;DHT22;25908;51.984;5.928;2022-11-12T04:05:04;6.40;99.90
39023;DHT22;25908;51.984;5.928;2022-11-12T04:08:00;6.40;99.90
39023;DHT22;25908;51.984;5.928;2022-11-12T04:10:45;6.30;99.90
39023;DHT22;25908;51.984;5.928;2022-11-12T04:13:11;6.30;99.90
39023;DHT22;25908;51.984;5.928;2022-11-12T04:18:40;6.30;99.90
39023;DHT22;25908;51.984;5.928;2022-11-12T04:21:27;6.30;99.90
39023;DHT22;25908;51.984;5.928;2022-11-12T04:24:13;6.30;99.90
39023;DHT22;25908;51.984;5.928;2022-11-12T04:26:58;6.30;99.90
39023;DHT22;25908;51.984;5.928;2022-11-12T04:29:24;6.30;99.90
39023;DHT22;25908;51.984;5.928;2022-11-12T04:32:08;6.30;99.90
39023;DHT22;25908;51.984;5.928;2022-11-12T04:34:33;6.30;99.90
39023;DHT22;25908;51.984;5.928;2022-11-12T04:37:01;6.20;99.90
39023;DHT22;25908;51.984;5.928;2022-11-12T04:39:27;6.20;99.90
39023;DHT22;25908;51.984;5.928;2022-11-12T04:41:53;6.20;99.90
39023;DHT22;25908;51.984;5.928;2022-11-12T04:44:37;6.20;99.90
39023;DHT22;25908;51.984;5.928;2022-11-12T04:47:24;6.20;99.90
39023;DHT22;25908;51.984;5.928;2022-11-12T04:49:50;6.20;99.90
39023;DHT22;25908;51.984;5.928;2022-11-12T04:52:16;6.10;99.90
39023;DHT22;25908;51.984;5.928;2022-11-12T04:54:42;6.20;99.90
39023;DHT22;25908;51.984;5.928;2022-11-12T04:57:08;6.10;99.90
39023;DHT22;25908;51.984;5.928;2022-11-12T04:59:33;6.10;99.90
39023;DHT22;25908;51.984;5.928;2022-11-12T05:01:59;6.10;99.90
39023;DHT22;25908;51.984;5.928;2022-11-12T05:04:24;6.20;99.90
39023;DHT22;25908;51.984;5.928;2022-11-12T05:06:56;6.10;99.90
39023;DHT22;25908;51.984;5.928;2022-11-12T05:09:24;6.10;99.90
39023;DHT22;25908;51.984;5.928;2022-11-12T05:11:50;6.10;99.90
39023;DHT22;25908;51.984;5.928;2022-11-12T05:14:16;6.10;99.90
39023;DHT22;25908;51.984;5.928;2022-11-12T05:16:42;6.10;99.90
39023;DHT22;25908;51.984;5.928;2022-11-12T05:19:07;6.10;99.90
39023;DHT22;25908;51.984;5.928;2022-11-12T05:21:33;6.00;99.90
39023;DHT22;25908;51.984;5.928;2022-11-12T05:24:18;6.00;99.90
39023;DHT22;25908;51.984;5.928;2022-11-12T05:26:43;6.00;99.90
39023;DHT22;25908;51.984;5.928;2022-11-12T05:29:09;6.00;99.90
39023;DHT22;25908;51.984;5.928;2022-11-12T05:31:34;6.00;99.90
39023;DHT22;25908;51.984;5.928;2022-11-12T05:34:00;6.00;99.90
39023;DHT22;25908;51.984;5.928;2022-11-12T05:36:26;6.00;99.90
39023;DHT22;25908;51.984;5.928;2022-11-12T05:38:51;6.00;99.90
39023;DHT22;25908;51.984;5.928;2022-11-12T05:41:17;6.00;99.90
39023;DHT22;25908;51.984;5.928;2022-11-12T05:43:42;6.00;99.90
39023;DHT22;25908;51.984;5.928;2022-11-12T05:46:08;6.00;99.90
39023;DHT22;25908;51.984;5.928;2022-11-12T05:48:34;6.00;99.90
39023;DHT22;25908;51.984;5.928;2022-11-12T05:50:59;5.90;99.90
39023;DHT22;25908;51.984;5.928;2022-11-12T05:53:25;5.90;99.90
39023;DHT22;25908;51.984;5.928;2022-11-12T05:55:50;5.90;99.90
39023;DHT22;25908;51.984;5.928;2022-11-12T05:58:16;5.90;99.90
39023;DHT22;25908;51.984;5.928;2022-11-12T06:00:42;6.00;99.90
39023;DHT22;25908;51.984;5.928;2022-11-12T06:03:08;5.90;99.90
39023;DHT22;25908;51.984;5.928;2022-11-12T06:05:35;5.90;99.90
39023;DHT22;25908;51.984;5.928;2022-11-12T06:08:03;5.90;99.90
39023;DHT22;25908;51.984;5.928;2022-11-12T06:10:29;5.90;99.90
39023;DHT22;25908;51.984;5.928;2022-11-12T06:12:55;6.00;99.90
39023;DHT22;25908;51.984;5.928;2022-11-12T06:15:21;5.90;99.90
39023;DHT22;25908;51.984;5.928;2022-11-12T06:17:47;5.90;99.90
39023;DHT22;25908;51.984;5.928;2022-11-12T06:20:12;5.90;99.90
39023;DHT22;25908;51.984;5.928;2022-11-12T06:22:38;5.90;99.90
39023;DHT22;25908;51.984;5.928;2022-11-12T06:25:04;5.90;99.90
39023;DHT22;25908;51.984;5.928;2022-11-12T06:27:30;5.90;99.90
39023;DHT22;25908;51.984;5.928;2022-11-12T06:29:56;5.90;99.90
39023;DHT22;25908;51.984;5.928;2022-11-12T06:32:22;5.90;99.90
39023;DHT22;25908;51.984;5.928;2022-11-12T06:34:48;5.90;99.90
39023;DHT22;25908;51.984;5.928;2022-11-12T06:37:14;5.90;99.90
39023;DHT22;25908;51.984;5.928;2022-11-12T06:39:40;5.90;99.90
39023;DHT22;25908;51.984;5.928;2022-11-12T06:42:06;5.90;99.90
39023;DHT22;25908;51.984;5.928;2022-11-12T06:44:31;5.90;99.90
39023;DHT22;25908;51.984;5.928;2022-11-12T06:46:57;5.90;99.90
39023;DHT22;25908;51.984;5.928;2022-11-12T06:49:22;5.90;99.90
39023;DHT22;25908;51.984;5.928;2022-11-12T06:51:49;5.90;99.90
39023;DHT22;25908;51.984;5.928;2022-11-12T06:54:15;5.90;99.90
39023;DHT22;25908;51.984;5.928;2022-11-12T06:56:41;5.90;99.90
39023;DHT22;25908;51.984;5.928;2022-11-12T06:59:06;5.90;99.90
39023;DHT22;25908;51.984;5.928;2022-11-12T07:01:32;5.90;99.90
39023;DHT22;25908;51.984;5.928;2022-11-12T07:03:58;5.90;99.90
39023;DHT22;25908;51.984;5.928;2022-11-12T07:06:23;5.90;99.90
39023;DHT22;25908;51.984;5.928;2022-11-12T07:08:49;5.90;99.90
39023;DHT22;25908;51.984;5.928;2022-11-12T07:11:19;5.90;99.90
39023;DHT22;25908;51.984;5.928;2022-11-12T07:13:45;5.90;99.90
39023;DHT22;25908;51.984;5.928;2022-11-12T07:16:11;5.90;99.90
39023;DHT22;25908;51.984;5.928;2022-11-12T07:18:38;5.90;99.90
39023;DHT22;25908;51.984;5.928;2022-11-12T07:21:05;5.90;99.90
39023;DHT22;25908;51.984;5.928;2022-11-12T07:23:33;5.90;99.90
39023;DHT22;25908;51.984;5.928;2022-11-12T07:26:04;6.00;99.90
39023;DHT22;25908;51.984;5.928;2022-11-12T07:28:29;6.00;99.90
39023;DHT22;25908;51.984;5.928;2022-11-12T07:31:02;6.00;99.90
39023;DHT22;25908;51.984;5.928;2022-11-12T07:33:29;6.00;99.90
39023;DHT22;25908;51.984;5.928;2022-11-12T07:35:58;6.00;99.90
39023;DHT22;25908;51.984;5.928;2022-11-12T07:38:25;6.00;99.90
39023;DHT22;25908;51.984;5.928;2022-11-12T07:40:51;6.00;99.90
39023;DHT22;25908;51.984;5.928;2022-11-12T07:43:16;6.10;99.90
39023;DHT22;25908;51.984;5.928;2022-11-12T07:45:42;6.10;99.90
39023;DHT22;25908;51.984;5.928;2022-11-12T07:48:08;6.10;99.90
39023;DHT22;25908;51.984;5.928;2022-11-12T07:50:33;6.20;99.90
39023;DHT22;25908;51.984;5.928;2022-11-12T07:52:59;6.10;99.90
39023;DHT22;25908;51.984;5.928;2022-11-12T07:55:24;6.20;99.90
39023;DHT22;25908;51.984;5.928;2022-11-12T07:57:50;6.20;99.90
39023;DHT22;25908;51.984;5.928;2022-11-12T08:00:16;6.20;99.90
39023;DHT22;25908;51.984;5.928;2022-11-12T08:02:41;6.30;99.90
39023;DHT22;25908;51.984;5.928;2022-11-12T08:05:07;6.30;99.90
39023;DHT22;25908;51.984;5.928;2022-11-12T08:07:32;6.30;99.90
39023;DHT22;25908;51.984;5.928;2022-11-12T08:09:58;6.40;99.90
39023;DHT22;25908;51.984;5.928;2022-11-12T08:12:24;6.40;99.90
39023;DHT22;25908;51.984;5.928;2022-11-12T08:14:49;6.50;99.90
39023;DHT22;25908;51.984;5.928;2022-11-12T08:17:15;6.60;99.90
39023;DHT22;25908;51.984;5.928;2022-11-12T08:19:40;6.70;99.90
39023;DHT22;25908;51.984;5.928;2022-11-12T08:22:06;6.90;99.90
39023;DHT22;25908;51.984;5.928;2022-11-12T08:24:31;7.10;99.90
39023;DHT22;25908;51.984;5.928;2022-11-12T08:26:57;7.20;99.90
39023;DHT22;25908;51.984;5.928;2022-11-12T08:29:22;7.40;99.90
39023;DHT22;25908;51.984;5.928;2022-11-12T08:31:48;7.60;99.90
39023;DHT22;25908;51.984;5.928;2022-11-12T08:34:13;7.90;99.90
39023;DHT22;25908;51.984;5.928;2022-11-12T08:36:39;8.10;99.90
39023;DHT22;25908;51.984;5.928;2022-11-12T08:39:05;8.30;99.90
39023;DHT22;25908;51.984;5.928;2022-11-12T08:41:31;8.60;99.90
39023;DHT22;25908;51.984;5.928;2022-11-12T08:43:57;8.90;99.90
39023;DHT22;25908;51.984;5.928;2022-11-12T08:46:24;9.20;99.90
39023;DHT22;25908;51.984;5.928;2022-11-12T08:48:49;9.50;99.90
39023;DHT22;25908;51.984;5.928;2022-11-12T08:51:15;9.80;99.90
39023;DHT22;25908;51.984;5.928;2022-11-12T08:53:40;10.00;99.90
39023;DHT22;25908;51.984;5.928;2022-11-12T08:56:06;10.20;99.90
39023;DHT22;25908;51.984;5.928;2022-11-12T08:58:31;10.40;99.90
39023;DHT22;25908;51.984;5.928;2022-11-12T09:01:03;10.50;99.90
39023;DHT22;25908;51.984;5.928;2022-11-12T09:03:29;10.70;99.90
39023;DHT22;25908;51.984;5.928;2022-11-12T09:05:54;10.90;99.90
39023;DHT22;25908;51.984;5.928;2022-11-12T09:08:22;11.00;99.60
39023;DHT22;25908;51.984;5.928;2022-11-12T09:10:48;11.10;99.40
39023;DHT22;25908;51.984;5.928;2022-11-12T09:13:14;11.30;99.40
39023;DHT22;25908;51.984;5.928;2022-11-12T09:15:41;11.40;99.10
39023;DHT22;25908;51.984;5.928;2022-11-12T09:18:11;11.50;98.70
39023;DHT22;25908;51.984;5.928;2022-11-12T09:20:36;11.60;98.20
39023;DHT22;25908;51.984;5.928;2022-11-12T09:23:11;11.70;98.10
39023;DHT22;25908;51.984;5.928;2022-11-12T09:25:38;11.80;98.10
39023;DHT22;25908;51.984;5.928;2022-11-12T09:28:13;12.00;97.90
39023;DHT22;25908;51.984;5.928;2022-11-12T09:30:45;12.00;97.70
39023;DHT22;25908;51.984;5.928;2022-11-12T09:33:15;12.10;98.00
39023;DHT22;25908;51.984;5.928;2022-11-12T09:35:41;12.20;97.60
39023;DHT22;25908;51.984;5.928;2022-11-12T09:38:07;12.30;97.60
39023;DHT22;25908;51.984;5.928;2022-11-12T09:40:54;12.40;97.20
39023;DHT22;25908;51.984;5.928;2022-11-12T09:43:26;12.40;97.00
39023;DHT22;25908;51.984;5.928;2022-11-12T09:45:55;12.40;96.70
39023;DHT22;25908;51.984;5.928;2022-11-12T09:48:28;12.50;96.80
39023;DHT22;25908;51.984;5.928;2022-11-12T09:51:04;12.40;96.60
39023;DHT22;25908;51.984;5.928;2022-11-12T09:56:15;12.40;97.10
39023;DHT22;25908;51.984;5.928;2022-11-12T09:58:42;12.50;97.20
39023;DHT22;25908;51.984;5.928;2022-11-12T10:01:18;12.50;97.20
39023;DHT22;25908;51.984;5.928;2022-11-12T10:07:24;12.70;96.80
39023;DHT22;25908;51.984;5.928;2022-11-12T10:10:14;12.70;96.30
39023;DHT22;25908;51.984;5.928;2022-11-12T10:13:00;12.70;96.30
39023;DHT22;25908;51.984;5.928;2022-11-12T10:18:27;12.80;96.20
39023;DHT22;25908;51.984;5.928;2022-11-12T10:20:55;12.80;96.10
39023;DHT22;25908;51.984;5.928;2022-11-12T10:23:39;12.80;96.10
39023;DHT22;25908;51.984;5.928;2022-11-12T10:26:18;12.90;96.50
39023;DHT22;25908;51.984;5.928;2022-11-12T10:29:01;13.00;96.40
39023;DHT22;25908;51.984;5.928;2022-11-12T10:31:27;13.00;96.20
39023;DHT22;25908;51.984;5.928;2022-11-12T10:36:37;13.00;96.40
39023;DHT22;25908;51.984;5.928;2022-11-12T10:39:04;12.90;95.50
39023;DHT22;25908;51.984;5.928;2022-11-12T10:41:31;13.00;95.70
39023;DHT22;25908;51.984;5.928;2022-11-12T10:44:02;13.00;95.80
39023;DHT22;25908;51.984;5.928;2022-11-12T10:46:32;13.00;95.90
39023;DHT22;25908;51.984;5.928;2022-11-12T10:49:01;13.00;95.80
39023;DHT22;25908;51.984;5.928;2022-11-12T10:51:32;13.00;95.90
39023;DHT22;25908;51.984;5.928;2022-11-12T10:54:01;13.00;96.00
39023;DHT22;25908;51.984;5.928;2022-11-12T10:56:43;13.10;96.00
39023;DHT22;25908;51.984;5.928;2022-11-12T10:59:17;13.10;96.00
39023;DHT22;25908;51.984;5.928;2022-11-12T11:01:44;13.10;96.00
39023;DHT22;25908;51.984;5.928;2022-11-12T11:04:34;13.10;96.10
39023;DHT22;25908;51.984;5.928;2022-11-12T11:07:14;13.10;96.10
39023;DHT22;25908;51.984;5.928;2022-11-12T11:09:55;13.20;96.00
39023;DHT22;25908;51.984;5.928;2022-11-12T11:12:24;13.10;96.10
39023;DHT22;25908;51.984;5.928;2022-11-12T11:17:36;13.10;96.00
39023;DHT22;25908;51.984;5.928;2022-11-12T11:20:17;13.10;96.10
39023;DHT22;25908;51.984;5.928;2022-11-12T11:22:45;13.10;96.10
39023;DHT22;25908;51.984;5.928;2022-11-12T11:25:19;13.00;96.30
39023;DHT22;25908;51.984;5.928;2022-11-12T11:28:19;13.00;96.40
39023;DHT22;25908;51.984;5.928;2022-11-12T11:30:56;13.10;96.50
39023;DHT22;25908;51.984;5.928;2022-11-12T11:39:02;13.10;96.50
39023;DHT22;25908;51.984;5.928;2022-11-12T11:44:37;13.10;96.60
39023;DHT22;25908;51.984;5.928;2022-11-12T11:47:25;13.20;96.60
39023;DHT22;25908;51.984;5.928;2022-11-12T11:50:19;13.20;96.60
39023;DHT22;25908;51.984;5.928;2022-11-12T11:53:11;13.20;96.70
39023;DHT22;25908;51.984;5.928;2022-11-12T11:55:52;13.20;96.60
39023;DHT22;25908;51.984;5.928;2022-11-12T12:01:16;13.30;96.50
39023;DHT22;25908;51.984;5.928;2022-11-12T12:12:46;13.40;96.70
39023;DHT22;25908;51.984;5.928;2022-11-12T12:16:05;13.40;96.70
39023;DHT22;25908;51.984;5.928;2022-11-12T12:21:00;13.40;96.50
39023;DHT22;25908;51.984;5.928;2022-11-12T12:23:38;13.40;96.60
39023;DHT22;25908;51.984;5.928;2022-11-12T12:26:22;13.50;96.60
39023;DHT22;25908;51.984;5.928;2022-11-12T12:28:51;13.50;96.60
39023;DHT22;25908;51.984;5.928;2022-11-12T12:31:22;13.50;96.50
39023;DHT22;25908;51.984;5.928;2022-11-12T12:33:53;13.50;96.60
39023;DHT22;25908;51.984;5.928;2022-11-12T12:36:29;13.50;96.50
39023;DHT22;25908;51.984;5.928;2022-11-12T12:39:18;13.60;96.40
39023;DHT22;25908;51.984;5.928;2022-11-12T12:41:55;13.60;96.40
39023;DHT22;25908;51.984;5.928;2022-11-12T12:44:23;13.60;96.40
39023;DHT22;25908;51.984;5.928;2022-11-12T12:47:11;13.60;96.40
39023;DHT22;25908;51.984;5.928;2022-11-12T12:49:39;13.70;96.30
39023;DHT22;25908;51.984;5.928;2022-11-12T12:52:05;13.70;96.30
39023;DHT22;25908;51.984;5.928;2022-11-12T12:57:01;13.70;96.10
39023;DHT22;25908;51.984;5.928;2022-11-12T12:59:27;13.70;96.20
39023;DHT22;25908;51.984;5.928;2022-11-12T13:01:57;13.80;96.60
39023;DHT22;25908;51.984;5.928;2022-11-12T13:04:54;13.80;96.50
39023;DHT22;25908;51.984;5.928;2022-11-12T13:07:42;13.90;96.40
39023;DHT22;25908;51.984;5.928;2022-11-12T13:13:19;13.90;96.20
39023;DHT22;25908;51.984;5.928;2022-11-12T13:15:49;14.00;96.10
39023;DHT22;25908;51.984;5.928;2022-11-12T13:23:42;14.00;96.10
39023;DHT22;25908;51.984;5.928;2022-11-12T13:26:47;14.00;96.20
39023;DHT22;25908;51.984;5.928;2022-11-12T13:31:43;14.10;96.20
39023;DHT22;25908;51.984;5.928;2022-11-12T13:34:16;14.10;96.30
39023;DHT22;25908;51.984;5.928;2022-11-12T13:37:03;14.10;96.50
39023;DHT22;25908;51.984;5.928;2022-11-12T13:39:32;14.10;96.50
39023;DHT22;25908;51.984;5.928;2022-11-12T13:42:00;14.10;96.60
39023;DHT22;25908;51.984;5.928;2022-11-12T13:44:47;14.10;96.70
39023;DHT22;25908;51.984;5.928;2022-11-12T13:47:16;14.10;96.80
39023;DHT22;25908;51.984;5.928;2022-11-12T13:49:43;14.10;96.90
39023;DHT22;25908;51.984;5.928;2022-11-12T13:52:13;14.10;97.00
39023;DHT22;25908;51.984;5.928;2022-11-12T13:54:39;14.10;97.10
39023;DHT22;25908;51.984;5.928;2022-11-12T13:59:45;14.10;97.20
39023;DHT22;25908;51.984;5.928;2022-11-12T14:02:22;14.10;97.30
39023;DHT22;25908;51.984;5.928;2022-11-12T14:04:50;14.10;97.50
39023;DHT22;25908;51.984;5.928;2022-11-12T14:21:34;14.10;98.20
39023;DHT22;25908;51.984;5.928;2022-11-12T14:24:02;14.10;98.20
39023;DHT22;25908;51.984;5.928;2022-11-12T14:26:39;14.10;98.10
39023;DHT22;25908;51.984;5.928;2022-11-12T14:29:05;14.10;98.20
39023;DHT22;25908;51.984;5.928;2022-11-12T14:31:31;14.10;98.30
39023;DHT22;25908;51.984;5.928;2022-11-12T14:34:20;14.10;98.30
39023;DHT22;25908;51.984;5.928;2022-11-12T14:36:46;14.10;98.30
39023;DHT22;25908;51.984;5.928;2022-11-12T14:39:13;14.10;98.40
39023;DHT22;25908;51.984;5.928;2022-11-12T14:41:40;14.10;98.40
39023;DHT22;25908;51.984;5.928;2022-11-12T14:44:14;14.10;98.40
39023;DHT22;25908;51.984;5.928;2022-11-12T14:46:49;14.10;98.40
39023;DHT22;25908;51.984;5.928;2022-11-12T14:51:54;14.10;98.30
39023;DHT22;25908;51.984;5.928;2022-11-12T14:54:50;14.10;98.20
39023;DHT22;25908;51.984;5.928;2022-11-12T14:57:26;14.00;98.20
39023;DHT22;25908;51.984;5.928;2022-11-12T14:59:53;14.10;98.10
39023;DHT22;25908;51.984;5.928;2022-11-12T15:02:30;14.00;98.10
39023;DHT22;25908;51.984;5.928;2022-11-12T15:05:15;14.00;98.10
39023;DHT22;25908;51.984;5.928;2022-11-12T15:07:56;14.00;98.20
39023;DHT22;25908;51.984;5.928;2022-11-12T15:10:35;14.00;98.20
39023;DHT22;25908;51.984;5.928;2022-11-12T15:13:13;14.00;98.20
39023;DHT22;25908;51.984;5.928;2022-11-12T15:15:53;13.90;98.10
39023;DHT22;25908;51.984;5.928;2022-11-12T15:18:25;13.90;98.00
39023;DHT22;25908;51.984;5.928;2022-11-12T15:23:45;13.90;97.90
39023;DHT22;25908;51.984;5.928;2022-11-12T15:26:20;13.90;97.80
39023;DHT22;25908;51.984;5.928;2022-11-12T15:36:54;13.80;97.80
39023;DHT22;25908;51.984;5.928;2022-11-12T15:39:20;13.70;97.80
39023;DHT22;25908;51.984;5.928;2022-11-12T15:41:46;13.70;97.80
39023;DHT22;25908;51.984;5.928;2022-11-12T15:44:12;13.60;97.70
39023;DHT22;25908;51.984;5.928;2022-11-12T15:46:38;13.60;97.70
39023;DHT22;25908;51.984;5.928;2022-11-12T15:49:12;13.50;97.60
39023;DHT22;25908;51.984;5.928;2022-11-12T15:51:38;13.50;97.60
39023;DHT22;25908;51.984;5.928;2022-11-12T15:54:03;13.50;97.60
39023;DHT22;25908;51.984;5.928;2022-11-12T15:56:29;13.40;97.70
39023;DHT22;25908;51.984;5.928;2022-11-12T15:58:55;13.40;97.80
39023;DHT22;25908;51.984;5.928;2022-11-12T16:01:21;13.30;98.00
39023;DHT22;25908;51.984;5.928;2022-11-12T16:03:47;13.20;98.10
39023;DHT22;25908;51.984;5.928;2022-11-12T16:06:12;13.10;98.30
39023;DHT22;25908;51.984;5.928;2022-11-12T16:08:38;13.10;98.40
39023;DHT22;25908;51.984;5.928;2022-11-12T16:11:03;13.00;98.50
39023;DHT22;25908;51.984;5.928;2022-11-12T16:13:49;12.90;98.60
39023;DHT22;25908;51.984;5.928;2022-11-12T16:16:15;12.80;98.70
39023;DHT22;25908;51.984;5.928;2022-11-12T16:18:40;12.80;99.00
39023;DHT22;25908;51.984;5.928;2022-11-12T16:21:07;12.70;98.80
39023;DHT22;25908;51.984;5.928;2022-11-12T16:23:33;12.60;99.00
39023;DHT22;25908;51.984;5.928;2022-11-12T16:25:59;12.50;99.10
39023;DHT22;25908;51.984;5.928;2022-11-12T16:28:26;12.50;99.30
39023;DHT22;25908;51.984;5.928;2022-11-12T16:30:52;12.40;99.40
39023;DHT22;25908;51.984;5.928;2022-11-12T16:33:18;12.40;99.50
39023;DHT22;25908;51.984;5.928;2022-11-12T16:35:43;12.30;99.50
39023;DHT22;25908;51.984;5.928;2022-11-12T16:38:12;12.30;99.50
39023;DHT22;25908;51.984;5.928;2022-11-12T16:40:42;12.20;99.50
39023;DHT22;25908;51.984;5.928;2022-11-12T16:43:08;12.20;99.60
39023;DHT22;25908;51.984;5.928;2022-11-12T16:45:36;12.10;99.70
39023;DHT22;25908;51.984;5.928;2022-11-12T16:48:16;12.10;99.80
39023;DHT22;25908;51.984;5.928;2022-11-12T16:50:42;12.00;99.90
39023;DHT22;25908;51.984;5.928;2022-11-12T16:53:08;12.00;99.90
39023;DHT22;25908;51.984;5.928;2022-11-12T16:55:33;11.90;99.90
39023;DHT22;25908;51.984;5.928;2022-11-12T16:57:59;11.90;99.90
39023;DHT22;25908;51.984;5.928;2022-11-12T17:00:25;11.90;99.90
39023;DHT22;25908;51.984;5.928;2022-11-12T17:02:50;11.90;99.90
39023;DHT22;25908;51.984;5.928;2022-11-12T17:05:18;11.90;99.90
39023;DHT22;25908;51.984;5.928;2022-11-12T17:07:45;11.90;99.90
39023;DHT22;25908;51.984;5.928;2022-11-12T17:10:10;11.80;99.90
39023;DHT22;25908;51.984;5.928;2022-11-12T17:12:36;11.80;99.90
39023;DHT22;25908;51.984;5.928;2022-11-12T17:15:02;11.80;99.90
39023;DHT22;25908;51.984;5.928;2022-11-12T17:17:27;11.70;99.90
39023;DHT22;25908;51.984;5.928;2022-11-12T17:19:53;11.70;99.90
39023;DHT22;25908;51.984;5.928;2022-11-12T17:22:18;11.70;99.90